createdAt,value
2023-05-10T00:00:46.191Z,97419.28
2023-05-10T00:03:13.030Z,97444.19
2023-05-10T00:05:39.619Z,97415.84
2023-05-10T00:08:06.523Z,97448.25
2023-05-10T00:10:33.191Z,97439.19
2023-05-10T00:12:59.892Z,97412.56
2023-05-10T00:15:26.553Z,97444.63
2023-05-10T00:17:53.187Z,97438.84
2023-05-10T00:20:19.972Z,97405.03
2023-05-10T00:22:46.562Z,97398.09
2023-05-10T00:25:13.152Z,97447.50
2023-05-10T00:27:39.765Z,97437.22
2023-05-10T00:30:07.370Z,97437.56
2023-05-10T00:32:33.980Z,97432.59
2023-05-10T00:35:00.605Z,97366.97
2023-05-10T00:37:27.332Z,97429.47
2023-05-10T00:39:54.278Z,97428.00
2023-05-10T00:42:20.832Z,97402.00
2023-05-10T00:44:47.816Z,97430.91
2023-05-10T00:47:14.602Z,97422.81
2023-05-10T00:49:42.678Z,97423.56
2023-05-10T00:52:10.137Z,97429.41
2023-05-10T00:54:37.473Z,97428.25
2023-05-10T00:57:04.351Z,97426.19
2023-05-10T00:59:31.112Z,97429.72
2023-05-10T01:01:59.004Z,97309.19
2023-05-10T01:04:29.460Z,97423.13
2023-05-10T01:06:56.246Z,97441.19
2023-05-10T01:09:23.458Z,97383.44
2023-05-10T01:11:50.409Z,97372.97
2023-05-10T01:14:19.730Z,97405.22
2023-05-10T01:16:47.744Z,97417.16
2023-05-10T01:19:19.799Z,97381.81
2023-05-10T01:22:02.102Z,97412.91
2023-05-10T01:24:43.494Z,97416.72
2023-05-10T01:27:27.434Z,97416.88
2023-05-10T01:30:22.436Z,97414.75
2023-05-10T01:33:08.712Z,97059.88
2023-05-10T01:35:43.194Z,97360.25
2023-05-10T01:38:23.744Z,97408.13
2023-05-10T01:41:09.558Z,97410.47
2023-05-10T01:43:58.646Z,97409.88
2023-05-10T01:46:43.578Z,97410.75
2023-05-10T01:49:24.007Z,97341.69
2023-05-10T01:51:55.749Z,97374.06
2023-05-10T01:54:25.188Z,97407.50
2023-05-10T01:56:59.737Z,97405.47
2023-05-10T01:59:30.681Z,97406.44
2023-05-10T02:02:00.810Z,97413.41
2023-05-10T02:04:28.745Z,97376.97
2023-05-10T02:06:57.072Z,97421.88
2023-05-10T02:09:25.362Z,97380.50
2023-05-10T02:11:52.747Z,97414.78
2023-05-10T02:14:20.796Z,97415.34
2023-05-10T02:16:48.522Z,97339.53
2023-05-10T02:19:16.805Z,97408.53
2023-05-10T02:21:44.596Z,97356.13
2023-05-10T02:24:12.510Z,97418.56
2023-05-10T02:26:39.609Z,97405.16
2023-05-10T02:29:07.884Z,97409.25
2023-05-10T02:31:36.327Z,97398.59
2023-05-10T02:34:04.931Z,97377.25
2023-05-10T02:36:32.474Z,97397.25
2023-05-10T02:39:02.073Z,97379.38
2023-05-10T02:41:31.923Z,97386.88
2023-05-10T02:44:02.343Z,97400.44
2023-05-10T02:46:29.177Z,97409.97
2023-05-10T02:48:56.012Z,97415.41
2023-05-10T02:51:26.596Z,97401.88
2023-05-10T02:53:54.955Z,97407.22
2023-05-10T02:56:29.770Z,97403.13
2023-05-10T02:58:56.706Z,97400.78
2023-05-10T03:01:23.398Z,97402.56
2023-05-10T03:03:50.175Z,97403.28
2023-05-10T03:06:17.517Z,97411.25
2023-05-10T03:08:45.428Z,97431.31
2023-05-10T03:11:40.232Z,97403.47
2023-05-10T03:14:40.866Z,97409.28
2023-05-10T03:17:12.506Z,97422.41
2023-05-10T03:19:54.185Z,97367.06
2023-05-10T03:22:48.565Z,97406.25
2023-05-10T03:25:17.682Z,97410.19
2023-05-10T03:27:45.664Z,97416.88
2023-05-10T03:30:14.467Z,97377.31
2023-05-10T03:32:41.519Z,97370.78
2023-05-10T03:35:13.289Z,97420.78
2023-05-10T03:37:40.382Z,97386.69
2023-05-10T03:40:07.777Z,97396.25
2023-05-10T03:42:34.400Z,97435.03
2023-05-10T03:45:00.991Z,97432.88
2023-05-10T03:47:27.653Z,97427.41
2023-05-10T03:49:54.315Z,97434.91
2023-05-10T03:52:20.930Z,97427.06
2023-05-10T03:54:47.496Z,97434.31
2023-05-10T03:57:14.130Z,97430.22
2023-05-10T03:59:40.732Z,97427.59
2023-05-10T04:02:07.489Z,97432.59
2023-05-10T04:04:34.121Z,97436.09
2023-05-10T04:07:00.785Z,97437.53
2023-05-10T04:09:27.412Z,97431.56
2023-05-10T04:11:54.020Z,97439.13
2023-05-10T04:14:20.556Z,97421.91
2023-05-10T04:16:47.248Z,97305.47
2023-05-10T04:19:14.050Z,97386.94
2023-05-10T04:21:40.682Z,97347.47
2023-05-10T04:24:07.387Z,97443.63
2023-05-10T04:26:34.017Z,97451.56
2023-05-10T04:29:00.721Z,97417.06
2023-05-10T04:31:28.918Z,97440.13
2023-05-10T04:33:55.656Z,97341.69
2023-05-10T04:36:22.266Z,97439.31
2023-05-10T04:38:49.074Z,97375.69
2023-05-10T04:41:15.877Z,97366.53
2023-05-10T04:43:42.409Z,97388.25
2023-05-10T04:46:09.017Z,97425.91
2023-05-10T04:48:35.772Z,97425.34
2023-05-10T04:51:02.495Z,97427.88
2023-05-10T04:53:29.287Z,97434.16
2023-05-10T04:55:55.940Z,97420.25
2023-05-10T04:58:22.595Z,97140.28
2023-05-10T05:00:49.654Z,97273.47
2023-05-10T05:03:16.410Z,97267.38
2023-05-10T05:05:43.125Z,97387.06
2023-05-10T05:08:09.985Z,97430.94
2023-05-10T05:10:36.611Z,97432.78
2023-05-10T05:13:03.316Z,97436.09
2023-05-10T05:15:31.002Z,97438.44
2023-05-10T05:17:57.906Z,97140.94
2023-05-10T05:20:24.538Z,97448.13
2023-05-10T05:22:51.072Z,97437.84
2023-05-10T05:25:17.674Z,97436.03
2023-05-10T05:27:44.383Z,97372.97
2023-05-10T05:30:11.321Z,97438.31
2023-05-10T05:32:37.920Z,97439.22
2023-05-10T05:35:04.894Z,97333.81
2023-05-10T05:37:31.477Z,97159.59
2023-05-10T05:39:58.095Z,97455.34
2023-05-10T05:42:24.658Z,97459.59
2023-05-10T05:44:51.250Z,97466.28
2023-05-10T05:47:18.489Z,97367.50
2023-05-10T05:49:46.922Z,97468.31
2023-05-10T05:52:13.856Z,97432.28
2023-05-10T05:54:40.729Z,97451.38
2023-05-10T05:57:07.356Z,97469.03
2023-05-10T05:59:34.032Z,97443.63
2023-05-10T06:02:01.724Z,97469.47
2023-05-10T06:04:28.463Z,97431.78
2023-05-10T06:06:55.042Z,97296.06
2023-05-10T06:09:21.700Z,97469.31
2023-05-10T06:11:48.333Z,97470.34
2023-05-10T06:14:14.868Z,97448.47
2023-05-10T06:16:41.704Z,97472.72
2023-05-10T06:19:08.392Z,97471.84
2023-05-10T06:21:35.084Z,97480.22
2023-05-10T06:24:01.721Z,97474.94
2023-05-10T06:26:28.333Z,97385.88
2023-05-10T06:28:55.036Z,97438.63
2023-05-10T06:31:22.104Z,97488.34
2023-05-10T06:33:48.757Z,97072.03
2023-05-10T06:36:15.545Z,97379.66
2023-05-10T06:38:42.147Z,97479.91
2023-05-10T06:41:09.277Z,97478.13
2023-05-10T06:43:36.040Z,97401.91
2023-05-10T06:46:02.647Z,97378.00
2023-05-10T06:48:29.563Z,97399.97
2023-05-10T06:50:56.248Z,97469.16
2023-05-10T06:53:22.981Z,97476.25
2023-05-10T06:55:50.516Z,97491.41
2023-05-10T06:58:17.340Z,97482.69
2023-05-10T07:00:44.843Z,97476.44
2023-05-10T07:03:11.883Z,97481.22
2023-05-10T07:05:38.835Z,97453.28
2023-05-10T07:08:05.511Z,97483.69
2023-05-10T07:10:32.165Z,97470.47
2023-05-10T07:12:58.919Z,97369.28
2023-05-10T07:15:25.668Z,97486.03
2023-05-10T07:17:53.157Z,97486.44
2023-05-10T07:20:19.978Z,97487.94
2023-05-10T07:22:46.552Z,97490.09
2023-05-10T07:25:13.202Z,97482.03
2023-05-10T07:27:39.975Z,97493.47
2023-05-10T07:30:07.194Z,97492.28
2023-05-10T07:32:34.088Z,97490.31
2023-05-10T07:35:01.273Z,97442.69
2023-05-10T07:37:27.898Z,97488.09
2023-05-10T07:39:54.532Z,97450.72
2023-05-10T07:42:21.095Z,97486.00
2023-05-10T07:44:48.249Z,97436.53
2023-05-10T07:47:14.994Z,97492.94
2023-05-10T07:49:41.816Z,97484.31
2023-05-10T07:52:08.417Z,97438.09
2023-05-10T07:54:35.076Z,97480.47
2023-05-10T07:57:01.928Z,97477.47
2023-05-10T07:59:28.620Z,97487.50
2023-05-10T08:01:55.578Z,97440.97
2023-05-10T08:04:22.248Z,97478.19
2023-05-10T08:06:48.914Z,97283.16
2023-05-10T08:09:15.643Z,97035.97
2023-05-10T08:11:42.344Z,97420.78
2023-05-10T08:14:09.008Z,97458.78
2023-05-10T08:16:35.582Z,97490.13
2023-05-10T08:19:02.469Z,97489.31
2023-05-10T08:21:29.434Z,97493.31
2023-05-10T08:23:56.058Z,97462.16
2023-05-10T08:26:22.783Z,97373.41
2023-05-10T08:28:49.513Z,97473.34
2023-05-10T08:31:16.695Z,97479.75
2023-05-10T08:33:44.656Z,97247.28
2023-05-10T08:36:11.755Z,97477.19
2023-05-10T08:38:39.103Z,97455.88
2023-05-10T08:41:07.091Z,97417.22
2023-05-10T08:43:36.816Z,97436.81
2023-05-10T08:46:06.342Z,97380.31
2023-05-10T08:48:35.534Z,97461.31
2023-05-10T08:51:04.708Z,97469.19
2023-05-10T08:53:34.189Z,97405.25
2023-05-10T08:56:03.031Z,97428.91
2023-05-10T08:58:30.244Z,97386.47
2023-05-10T09:00:58.113Z,97471.44
2023-05-10T09:03:24.830Z,97468.03
2023-05-10T09:05:51.727Z,97476.91
2023-05-10T09:08:18.747Z,97363.66
2023-05-10T09:10:48.234Z,97474.97
2023-05-10T09:13:16.646Z,97472.88
2023-05-10T09:15:47.000Z,97427.28
2023-05-10T09:18:14.331Z,97411.78
2023-05-10T09:20:41.554Z,97449.31
2023-05-10T09:23:08.638Z,97359.47
2023-05-10T09:25:35.645Z,97467.75
2023-05-10T09:28:02.424Z,97436.13
2023-05-10T09:30:30.630Z,97458.78
2023-05-10T09:32:59.400Z,97402.22
2023-05-10T09:35:29.862Z,97409.09
2023-05-10T09:38:01.656Z,97452.13
2023-05-10T09:40:29.848Z,97447.78
2023-05-10T09:42:58.551Z,97343.88
2023-05-10T09:45:27.395Z,97450.94
2023-05-10T09:47:54.200Z,97325.53
2023-05-10T09:50:21.818Z,97416.56
2023-05-10T09:53:04.922Z,97375.06
2023-05-10T09:55:42.126Z,97440.13
2023-05-10T09:58:11.819Z,97446.59
2023-05-10T10:00:46.630Z,97303.19
2023-05-10T10:03:16.348Z,97433.72
2023-05-10T10:05:44.639Z,97433.41
2023-05-10T10:08:13.096Z,97436.31
2023-05-10T10:10:41.466Z,97412.91
2023-05-10T10:13:08.871Z,97357.38
2023-05-10T10:15:35.921Z,97387.38
2023-05-10T10:18:04.597Z,97287.38
2023-05-10T10:20:31.526Z,97423.06
2023-05-10T10:22:58.212Z,97211.88
2023-05-10T10:25:26.119Z,97275.63
2023-05-10T10:27:52.618Z,97421.69
2023-05-10T10:30:38.088Z,97411.66
2023-05-10T10:33:13.307Z,97410.56
2023-05-10T10:35:47.730Z,97431.38
2023-05-10T10:38:14.729Z,97422.56
2023-05-10T10:40:41.694Z,97421.31
2023-05-10T10:43:28.415Z,97440.50
2023-05-10T10:46:15.101Z,97428.84
2023-05-10T10:48:43.250Z,97295.16
2023-05-10T10:51:11.555Z,97420.00
2023-05-10T10:53:42.441Z,97417.91
2023-05-10T10:56:16.080Z,97420.94
2023-05-10T10:58:50.011Z,97356.13
2023-05-10T11:01:19.210Z,97384.03
2023-05-10T11:04:06.332Z,97416.47
2023-05-10T11:06:37.310Z,97364.13
2023-05-10T11:09:12.552Z,97412.75
2023-05-10T11:11:59.434Z,97402.34
2023-05-10T11:14:26.427Z,97415.88
2023-05-10T11:16:53.207Z,97381.22
2023-05-10T11:19:20.769Z,97330.69
2023-05-10T11:21:51.691Z,97418.06
2023-05-10T11:24:28.350Z,97413.59
2023-05-10T11:26:55.216Z,97393.41
2023-05-10T11:29:22.970Z,97365.03
2023-05-10T11:31:50.896Z,97406.03
2023-05-10T11:34:25.982Z,97406.59
2023-05-10T11:36:54.871Z,97400.25
2023-05-10T11:39:22.569Z,97401.47
2023-05-10T11:41:50.742Z,97408.63
2023-05-10T11:44:17.689Z,97401.44
2023-05-10T11:46:44.324Z,97402.81
2023-05-10T11:49:11.808Z,97392.69
2023-05-10T11:51:38.429Z,97304.59
2023-05-10T11:54:10.357Z,97391.81
2023-05-10T11:56:38.744Z,97387.63
2023-05-10T11:59:05.692Z,97317.03
2023-05-10T12:01:32.858Z,97384.88
2023-05-10T12:04:01.247Z,97372.50
2023-05-10T12:06:41.431Z,97358.78
2023-05-10T12:09:09.057Z,97381.56
2023-05-10T12:11:41.091Z,97389.50
2023-05-10T12:14:09.515Z,97386.81
2023-05-10T12:16:36.901Z,97346.88
2023-05-10T12:19:03.622Z,97371.31
2023-05-10T12:21:31.857Z,97370.00
2023-05-10T12:24:04.533Z,97370.84
2023-05-10T12:26:31.567Z,97314.31
2023-05-10T12:29:18.438Z,97346.19
2023-05-10T12:31:58.630Z,97364.25
2023-05-10T12:34:32.003Z,97272.56
2023-05-10T12:36:59.285Z,97359.59
2023-05-10T12:39:26.031Z,97356.47
2023-05-10T12:41:53.051Z,97274.88
2023-05-10T12:44:19.740Z,97360.88
2023-05-10T12:46:46.356Z,97318.88
2023-05-10T12:49:12.895Z,97349.06
2023-05-10T12:51:39.492Z,97349.91
2023-05-10T12:54:06.153Z,97310.78
2023-05-10T12:56:33.026Z,97357.25
2023-05-10T12:58:59.597Z,97350.09
2023-05-10T13:01:26.241Z,97349.59
2023-05-10T13:03:52.911Z,97324.59
2023-05-10T13:06:19.592Z,97339.78
2023-05-10T13:08:46.171Z,97347.81
2023-05-10T13:11:12.928Z,97273.34
2023-05-10T13:13:39.555Z,97303.31
2023-05-10T13:16:06.562Z,97036.31
2023-05-10T13:18:33.145Z,97292.97
2023-05-10T13:20:59.800Z,97327.19
2023-05-10T13:23:26.377Z,97306.38
2023-05-10T13:25:53.138Z,96986.16
2023-05-10T13:28:19.805Z,97291.50
2023-05-10T13:30:47.034Z,97310.13
2023-05-10T13:33:13.707Z,97307.50
2023-05-10T13:35:40.482Z,97304.84
2023-05-10T13:38:09.063Z,97295.88
2023-05-10T13:40:37.038Z,97307.34
2023-05-10T13:43:03.752Z,97255.66
2023-05-10T13:45:30.353Z,97306.97
2023-05-10T13:47:56.963Z,97290.97
2023-05-10T13:50:23.532Z,97249.41
2023-05-10T13:52:50.130Z,97279.97
2023-05-10T13:55:17.085Z,97282.53
2023-05-10T13:57:44.289Z,97243.28
2023-05-10T14:00:11.525Z,97251.50
2023-05-10T14:02:38.287Z,97283.72
2023-05-10T14:05:05.358Z,97256.41
2023-05-10T14:07:31.998Z,97276.94
2023-05-10T14:09:58.579Z,97254.28
2023-05-10T14:12:25.224Z,97276.25
2023-05-10T14:14:51.842Z,97264.09
2023-05-10T14:17:18.477Z,96913.91
2023-05-10T14:19:45.035Z,97274.16
2023-05-10T14:22:11.682Z,97281.94
2023-05-10T14:24:39.169Z,97271.34
2023-05-10T14:27:07.006Z,97244.16
2023-05-10T14:29:33.966Z,97271.78
2023-05-10T14:32:00.648Z,97266.19
2023-05-10T14:34:27.277Z,97275.84
2023-05-10T14:36:53.812Z,97272.59
2023-05-10T14:39:20.392Z,97277.06
2023-05-10T14:41:48.190Z,97274.25
2023-05-10T14:44:16.329Z,97213.38
2023-05-10T14:46:42.979Z,97197.31
2023-05-10T14:49:09.544Z,97277.75
2023-05-10T14:51:37.760Z,97278.59
2023-05-10T14:54:04.345Z,97250.78
2023-05-10T14:56:31.246Z,97241.97
2023-05-10T14:58:57.948Z,97227.19
2023-05-10T15:01:25.298Z,97279.13
2023-05-10T15:03:52.540Z,97277.91
2023-05-10T15:06:25.919Z,97268.09
2023-05-10T15:08:52.714Z,97257.31
2023-05-10T15:11:19.563Z,97256.34
2023-05-10T15:13:46.162Z,97274.84
2023-05-10T15:16:12.720Z,97269.75
2023-05-10T15:18:39.315Z,97284.50
2023-05-10T15:21:05.941Z,97270.88
2023-05-10T15:23:33.051Z,97267.25
2023-05-10T15:25:59.647Z,97217.59
2023-05-10T15:28:26.190Z,97267.69
2023-05-10T15:30:52.844Z,97267.63
2023-05-10T15:33:19.450Z,97274.78
2023-05-10T15:35:46.069Z,97266.00
2023-05-10T15:38:12.734Z,97272.41
2023-05-10T15:40:39.343Z,97269.31
2023-05-10T15:43:08.777Z,97237.13
2023-05-10T15:45:37.647Z,97239.47
2023-05-10T15:48:04.807Z,97221.09
2023-05-10T15:50:31.420Z,97262.25
2023-05-10T15:52:57.981Z,97275.00
2023-05-10T15:55:24.638Z,97274.28
2023-05-10T15:57:51.459Z,97276.25
2023-05-10T16:00:19.054Z,97228.00
2023-05-10T16:02:46.081Z,97277.81
2023-05-10T16:05:13.956Z,97291.06
2023-05-10T16:07:42.003Z,97281.88
2023-05-10T16:10:10.853Z,97282.66
2023-05-10T16:12:39.316Z,97293.44
2023-05-10T16:15:07.205Z,97239.63
2023-05-10T16:17:33.916Z,97268.78
2023-05-10T16:20:01.234Z,97287.94
2023-05-10T16:22:28.823Z,97288.75
2023-05-10T16:24:56.793Z,97283.56
2023-05-10T16:27:23.395Z,97270.41
2023-05-10T16:29:50.107Z,97153.56
2023-05-10T16:32:17.170Z,97268.44
2023-05-10T16:34:43.763Z,97288.00
2023-05-10T16:37:11.321Z,97283.22
2023-05-10T16:39:37.942Z,97287.59
2023-05-10T16:42:04.596Z,97284.00
2023-05-10T16:44:31.153Z,97244.09
2023-05-10T16:46:57.831Z,97290.41
2023-05-10T16:49:26.563Z,97295.19
2023-05-10T16:51:53.228Z,97291.16
2023-05-10T16:54:21.387Z,97287.16
2023-05-10T16:56:48.106Z,97291.09
2023-05-10T16:59:14.701Z,97295.50
2023-05-10T17:01:41.339Z,97286.75
2023-05-10T17:04:08.106Z,97157.00
2023-05-10T17:06:36.824Z,97222.81
2023-05-10T17:09:04.088Z,97252.72
2023-05-10T17:11:30.723Z,97306.25
2023-05-10T17:13:58.580Z,97315.81
2023-05-10T17:16:25.570Z,97316.19
2023-05-10T17:18:52.464Z,97320.19
2023-05-10T17:21:19.395Z,97319.75
2023-05-10T17:23:46.108Z,97317.38
2023-05-10T17:26:12.924Z,97319.38
2023-05-10T17:28:39.496Z,97327.75
2023-05-10T17:31:06.183Z,97321.38
2023-05-10T17:33:32.804Z,97324.16
2023-05-10T17:35:59.397Z,97327.75
2023-05-10T17:38:26.286Z,97276.56
2023-05-10T17:40:52.896Z,97320.53
2023-05-10T17:43:20.660Z,97333.25
2023-05-10T17:45:50.283Z,97270.88
2023-05-10T17:48:17.340Z,97332.41
2023-05-10T17:50:44.398Z,97312.44
2023-05-10T17:53:11.167Z,97333.63
2023-05-10T17:55:41.155Z,97340.78
2023-05-10T17:58:08.514Z,97352.31
2023-05-10T18:00:35.978Z,97339.50
2023-05-10T18:03:03.566Z,97348.66
2023-05-10T18:05:30.912Z,97352.16
2023-05-10T18:07:57.562Z,97351.38
2023-05-10T18:10:24.834Z,97339.03
2023-05-10T18:12:52.589Z,97358.47
2023-05-10T18:15:19.363Z,97364.47
2023-05-10T18:17:46.006Z,97365.97
2023-05-10T18:20:13.114Z,97378.28
2023-05-10T18:22:39.956Z,97374.34
2023-05-10T18:25:08.182Z,97393.38
2023-05-10T18:27:34.964Z,97385.38
2023-05-10T18:30:01.679Z,97390.97
2023-05-10T18:32:28.344Z,97346.78
2023-05-10T18:34:55.746Z,97367.47
2023-05-10T18:37:22.860Z,97364.81
2023-05-10T18:39:49.993Z,97304.88
2023-05-10T18:42:16.646Z,97402.19
2023-05-10T18:44:43.271Z,97403.28
2023-05-10T18:47:09.879Z,97397.66
2023-05-10T18:49:36.513Z,97407.22
2023-05-10T18:52:03.298Z,97422.44
2023-05-10T18:54:30.126Z,97421.66
2023-05-10T18:56:58.591Z,97410.06
2023-05-10T18:59:25.692Z,97413.47
2023-05-10T19:01:53.643Z,97267.81
2023-05-10T19:04:21.893Z,97410.16
2023-05-10T19:06:48.901Z,97353.56
2023-05-10T19:09:15.796Z,97432.03
2023-05-10T19:11:43.360Z,97351.22
2023-05-10T19:14:10.278Z,97429.03
2023-05-10T19:16:37.086Z,97428.53
2023-05-10T19:19:04.239Z,97428.38
2023-05-10T19:21:32.553Z,97432.19
2023-05-10T19:23:59.818Z,97430.50
2023-05-10T19:26:26.531Z,97434.09
2023-05-10T19:28:53.466Z,97397.22
2023-05-10T19:31:23.668Z,97435.78
2023-05-10T19:33:50.571Z,97425.44
2023-05-10T19:36:17.284Z,97429.41
2023-05-10T19:38:44.173Z,97433.97
2023-05-10T19:41:11.590Z,97433.03
2023-05-10T19:43:39.651Z,97440.09
2023-05-10T19:46:06.595Z,97438.78
2023-05-10T19:48:33.260Z,97440.50
2023-05-10T19:51:07.835Z,97441.47
2023-05-10T19:53:36.641Z,97445.66
2023-05-10T19:56:07.377Z,97395.09
2023-05-10T19:58:34.348Z,97428.66
2023-05-10T20:01:01.407Z,97445.31
2023-05-10T20:03:28.696Z,97438.19
2023-05-10T20:05:55.449Z,97448.41
2023-05-10T20:08:22.068Z,97438.22
2023-05-10T20:10:48.633Z,97438.00
2023-05-10T20:13:15.259Z,97417.34
2023-05-10T20:15:41.957Z,97443.47
2023-05-10T20:18:08.606Z,97432.28
2023-05-10T20:20:35.325Z,97408.03
2023-05-10T20:23:01.970Z,97370.16
2023-05-10T20:25:28.626Z,97355.25
2023-05-10T20:27:55.255Z,97445.78
2023-05-10T20:30:22.232Z,97444.53
2023-05-10T20:32:48.970Z,97451.28
2023-05-10T20:35:15.797Z,97448.81
2023-05-10T20:37:42.414Z,97450.06
2023-05-10T20:40:09.659Z,97451.16
2023-05-10T20:42:36.249Z,97452.03
2023-05-10T20:45:03.344Z,97451.75
2023-05-10T20:47:29.968Z,97445.59
2023-05-10T20:49:56.509Z,97407.97
2023-05-10T20:52:24.523Z,97463.66
2023-05-10T20:54:51.219Z,97469.19
2023-05-10T20:57:17.822Z,97462.91
2023-05-10T20:59:44.448Z,97468.03
2023-05-10T21:02:11.129Z,97472.63
2023-05-10T21:04:37.793Z,97470.28
2023-05-10T21:07:04.351Z,97474.28
2023-05-10T21:09:30.995Z,97473.81
2023-05-10T21:11:58.016Z,97453.44
2023-05-10T21:14:24.607Z,97412.03
2023-05-10T21:16:51.414Z,97442.94
2023-05-10T21:19:18.165Z,97474.38
2023-05-10T21:21:44.832Z,97470.69
2023-05-10T21:24:11.560Z,97468.34
2023-05-10T21:26:38.381Z,97475.28
2023-05-10T21:29:05.603Z,97463.00
2023-05-10T21:31:32.416Z,97387.97
2023-05-10T21:33:59.048Z,97456.63
2023-05-10T21:36:26.109Z,97461.31
2023-05-10T21:38:52.739Z,97455.69
2023-05-10T21:41:19.555Z,97409.00
2023-05-10T21:43:46.116Z,97390.91
2023-05-10T21:46:14.325Z,97453.06
2023-05-10T21:48:41.315Z,97454.78
2023-05-10T21:51:07.881Z,97453.97
2023-05-10T21:53:37.617Z,97457.63
2023-05-10T21:56:04.202Z,97454.22
2023-05-10T21:58:30.798Z,97461.53
2023-05-10T22:00:57.479Z,97440.06
2023-05-10T22:03:26.193Z,97470.44
2023-05-10T22:05:53.005Z,97397.34
2023-05-10T22:08:19.577Z,97459.84
2023-05-10T22:10:46.176Z,97456.78
2023-05-10T22:13:12.786Z,97446.34
2023-05-10T22:15:39.550Z,97411.41
2023-05-10T22:18:06.439Z,97448.75
2023-05-10T22:20:33.621Z,97448.19
2023-05-10T22:23:00.954Z,97397.63
2023-05-10T22:25:27.619Z,97442.09
2023-05-10T22:27:54.146Z,97428.84
2023-05-10T22:30:21.018Z,97435.91
2023-05-10T22:32:47.867Z,97396.88
2023-05-10T22:35:14.510Z,97329.50
2023-05-10T22:37:41.694Z,97431.19
2023-05-10T22:40:09.002Z,97432.94
2023-05-10T22:42:35.549Z,97424.03
2023-05-10T22:45:02.142Z,97407.59
2023-05-10T22:47:28.780Z,97416.56
2023-05-10T22:49:56.174Z,97430.53
2023-05-10T22:52:22.743Z,97420.25
2023-05-10T22:54:49.377Z,97422.56
2023-05-10T22:57:16.418Z,97426.81
2023-05-10T22:59:43.429Z,97418.91
2023-05-10T23:02:10.223Z,97399.09
2023-05-10T23:04:37.087Z,97417.03
2023-05-10T23:07:03.764Z,97411.94
2023-05-10T23:09:30.285Z,97420.81
2023-05-10T23:11:57.469Z,97368.50
2023-05-10T23:14:24.100Z,97422.88
2023-05-10T23:16:50.885Z,97411.03
2023-05-10T23:19:17.526Z,97416.47
2023-05-10T23:21:44.090Z,97330.78
2023-05-10T23:24:11.705Z,97400.69
2023-05-10T23:26:38.279Z,97405.94
2023-05-10T23:29:05.001Z,97294.72
2023-05-10T23:31:31.729Z,97404.31
2023-05-10T23:33:58.296Z,97407.97
2023-05-10T23:36:24.895Z,97405.50
2023-05-10T23:38:51.552Z,97397.34
2023-05-10T23:41:18.220Z,97406.50
2023-05-10T23:43:44.802Z,97396.78
2023-05-10T23:46:11.498Z,97393.25
2023-05-10T23:48:38.064Z,97329.59
2023-05-10T23:51:04.929Z,97400.09
2023-05-10T23:53:31.488Z,97395.00
2023-05-10T23:55:58.063Z,97319.25
2023-05-10T23:58:24.691Z,97391.50
